Search for airport 
image banner adimage banner adimage banner ad
image banner ad

KFWQ - Rostraver

Located in Monongahela, United States

ICAO - FWQ, IATA -

Data provided by Airmate  

General information

Coordinates: N40°12'35" W79°49'53"
Elevation is 1228 feet MSL.
Magnetic variation is -09° East
View others Airports in Pennsylvania

Operational data

Special qualification required
Current time UTC:
Current local time:
Weather at : KAGC - Allegheny County ( 18 km )
METAR: KAGC 071327Z VRB05KT 3SM -RA BR FEW007 OVC038 07/06 A2987 RMK AO2 P0002 T00670061
TAF: KAGC 071133Z 0712/0812 VRB03KT P6SM -SHRA OVC040 FM071300 27004KT P6SM -SHRA OVC025 FM071500 28006KT 5SM -SHRA OVC010 TEMPO 0715/0717 OVC008 FM071900 31008G16KT P6SM VCSH BKN020 FM072100 31008KT P6SM BKN045 FM080500 25003KT P6SM VCSH OVC015
View NOTAMs / SUP AIP / TFR affecting this airport [VIEW]
Communications frequencies: [VIEW]

Runways:

RWY identifierQFULength (ft)Width (ft)SurfaceLDA (ft)
0867°400275ASPH
26247°400275ASPH

Airport contact information

Address: Monongahela United States

Satellite view of KFWQ